sensor_id;sensor_type;location;lat;lon;timestamp;temperature;humidity
66827;DHT22;53727;45.242;19.796;2022-12-07T01:12:40;180.10;2252.80
66827;DHT22;53727;45.242;19.796;2022-12-07T01:15:06;179.90;2252.80
66827;DHT22;53727;45.242;19.796;2022-12-07T01:17:32;179.90;2252.80
66827;DHT22;53727;45.242;19.796;2022-12-07T01:19:58;179.90;2252.80
66827;DHT22;53727;45.242;19.796;2022-12-07T01:22:24;180.00;2252.80
66827;DHT22;53727;45.242;19.796;2022-12-07T01:24:49;179.90;2252.80
66827;DHT22;53727;45.242;19.796;2022-12-07T02:54:17;204.90;2252.80
66827;DHT22;53727;45.242;19.796;2022-12-07T02:56:49;180.10;2252.80
66827;DHT22;53727;45.242;19.796;2022-12-07T03:04:45;180.10;2252.80
66827;DHT22;53727;45.242;19.796;2022-12-07T03:09:55;180.00;2252.80
66827;DHT22;53727;45.242;19.796;2022-12-07T03:12:46;180.00;2252.80
66827;DHT22;53727;45.242;19.796;2022-12-07T03:15:21;179.90;2252.80
66827;DHT22;53727;45.242;19.796;2022-12-07T03:17:52;179.90;2252.80
66827;DHT22;53727;45.242;19.796;2022-12-07T03:20:21;179.90;2252.80
66827;DHT22;53727;45.242;19.796;2022-12-07T03:22:49;179.90;2252.80
66827;DHT22;53727;45.242;19.796;2022-12-07T03:25:17;179.90;2252.80
66827;DHT22;53727;45.242;19.796;2022-12-07T03:27:56;180.00;2252.80
66827;DHT22;53727;45.242;19.796;2022-12-07T03:30:27;180.00;2252.80
66827;DHT22;53727;45.242;19.796;2022-12-07T03:33:02;180.10;2252.80
66827;DHT22;53727;45.242;19.796;2022-12-07T03:35:37;180.10;2252.80
66827;DHT22;53727;45.242;19.796;2022-12-07T03:41:11;204.90;2252.80
66827;DHT22;53727;45.242;19.796;2022-12-07T03:43:40;204.80;2252.80
66827;DHT22;53727;45.242;19.796;2022-12-07T03:48:59;204.80;2252.80
66827;DHT22;53727;45.242;19.796;2022-12-07T03:51:43;204.80;2252.80
66827;DHT22;53727;45.242;19.796;2022-12-07T03:56:49;204.80;2252.80
66827;DHT22;53727;45.242;19.796;2022-12-07T03:59:16;204.80;2252.80
66827;DHT22;53727;45.242;19.796;2022-12-07T04:01:52;204.80;2252.80
66827;DHT22;53727;45.242;19.796;2022-12-07T04:04:19;204.80;2252.80
66827;DHT22;53727;45.242;19.796;2022-12-07T04:06:45;204.80;2252.80
66827;DHT22;53727;45.242;19.796;2022-12-07T04:09:10;204.80;2252.80
66827;DHT22;53727;45.242;19.796;2022-12-07T04:11:36;204.80;2252.80
66827;DHT22;53727;45.242;19.796;2022-12-07T04:14:02;204.80;2252.80
66827;DHT22;53727;45.242;19.796;2022-12-07T04:16:54;204.80;2252.80
66827;DHT22;53727;45.242;19.796;2022-12-07T04:19:25;204.90;2252.80
66827;DHT22;53727;45.242;19.796;2022-12-07T04:21:52;204.90;2252.80
66827;DHT22;53727;45.242;19.796;2022-12-07T04:24:18;204.80;2252.80
66827;DHT22;53727;45.242;19.796;2022-12-07T04:26:44;204.90;2252.80
66827;DHT22;53727;45.242;19.796;2022-12-07T04:29:11;204.90;2252.80
66827;DHT22;53727;45.242;19.796;2022-12-07T04:31:37;204.90;2252.80
66827;DHT22;53727;45.242;19.796;2022-12-07T04:34:04;204.90;2252.80
66827;DHT22;53727;45.242;19.796;2022-12-07T04:36:30;204.80;2252.80
66827;DHT22;53727;45.242;19.796;2022-12-07T04:38:59;204.80;2252.80
66827;DHT22;53727;45.242;19.796;2022-12-07T04:41:25;180.10;2252.80
66827;DHT22;53727;45.242;19.796;2022-12-07T04:43:58;180.10;2252.80
66827;DHT22;53727;45.242;19.796;2022-12-07T04:46:25;180.10;2252.80
66827;DHT22;53727;45.242;19.796;2022-12-07T04:48:52;180.10;2252.80
66827;DHT22;53727;45.242;19.796;2022-12-07T04:51:22;180.10;2252.80
66827;DHT22;53727;45.242;19.796;2022-12-07T04:53:48;180.10;2252.80
66827;DHT22;53727;45.242;19.796;2022-12-07T04:56:15;180.10;2252.80
66827;DHT22;53727;45.242;19.796;2022-12-07T04:58:42;180.10;2252.80
66827;DHT22;53727;45.242;19.796;2022-12-07T05:01:08;180.10;2252.80
66827;DHT22;53727;45.242;19.796;2022-12-07T05:03:34;180.10;2252.80
66827;DHT22;53727;45.242;19.796;2022-12-07T05:05:59;180.10;2252.80
66827;DHT22;53727;45.242;19.796;2022-12-07T05:08:27;180.10;2252.80
66827;DHT22;53727;45.242;19.796;2022-12-07T05:10:53;204.80;2252.80
66827;DHT22;53727;45.242;19.796;2022-12-07T05:13:19;204.80;2252.80
66827;DHT22;53727;45.242;19.796;2022-12-07T05:15:46;204.80;2252.80
66827;DHT22;53727;45.242;19.796;2022-12-07T05:18:12;204.90;2252.80
66827;DHT22;53727;45.242;19.796;2022-12-07T05:20:39;204.90;2252.80
66827;DHT22;53727;45.242;19.796;2022-12-07T05:23:05;205.00;2252.80
66827;DHT22;53727;45.242;19.796;2022-12-07T05:25:30;205.00;2252.80
66827;DHT22;53727;45.242;19.796;2022-12-07T05:27:56;205.00;2252.80
66827;DHT22;53727;45.242;19.796;2022-12-07T05:30:25;205.10;2252.80
66827;DHT22;53727;45.242;19.796;2022-12-07T05:32:52;205.10;2252.80
66827;DHT22;53727;45.242;19.796;2022-12-07T05:35:18;205.00;2252.80
66827;DHT22;53727;45.242;19.796;2022-12-07T05:37:45;205.00;2252.80
66827;DHT22;53727;45.242;19.796;2022-12-07T05:40:11;205.10;2252.80
66827;DHT22;53727;45.242;19.796;2022-12-07T05:42:37;205.10;2252.80
66827;DHT22;53727;45.242;19.796;2022-12-07T05:45:04;205.10;2252.80
66827;DHT22;53727;45.242;19.796;2022-12-07T05:47:30;205.10;2252.80
66827;DHT22;53727;45.242;19.796;2022-12-07T05:49:56;205.20;2252.80
66827;DHT22;53727;45.242;19.796;2022-12-07T05:52:21;205.20;2252.80
66827;DHT22;53727;45.242;19.796;2022-12-07T05:54:47;205.30;2252.80
66827;DHT22;53727;45.242;19.796;2022-12-07T05:57:13;205.40;2252.80
66827;DHT22;53727;45.242;19.796;2022-12-07T05:59:39;205.40;2252.80
66827;DHT22;53727;45.242;19.796;2022-12-07T06:02:08;205.30;2252.80
66827;DHT22;53727;45.242;19.796;2022-12-07T06:04:37;205.30;2252.80
66827;DHT22;53727;45.242;19.796;2022-12-07T06:07:04;205.40;2252.80
66827;DHT22;53727;45.242;19.796;2022-12-07T06:09:31;205.40;2252.80
66827;DHT22;53727;45.242;19.796;2022-12-07T06:11:57;205.50;2252.80
66827;DHT22;53727;45.242;19.796;2022-12-07T06:14:41;205.50;2252.80
66827;DHT22;53727;45.242;19.796;2022-12-07T06:17:07;205.50;2252.80
66827;DHT22;53727;45.242;19.796;2022-12-07T06:19:33;205.50;2252.80
66827;DHT22;53727;45.242;19.796;2022-12-07T06:21:59;205.50;2252.80
66827;DHT22;53727;45.242;19.796;2022-12-07T06:24:25;205.60;2252.80
66827;DHT22;53727;45.242;19.796;2022-12-07T06:26:51;205.60;2252.80
66827;DHT22;53727;45.242;19.796;2022-12-07T06:29:18;205.60;2252.80
66827;DHT22;53727;45.242;19.796;2022-12-07T06:31:44;205.50;2252.80
66827;DHT22;53727;45.242;19.796;2022-12-07T06:34:12;205.50;2252.80
66827;DHT22;53727;45.242;19.796;2022-12-07T06:36:39;205.40;2252.80
66827;DHT22;53727;45.242;19.796;2022-12-07T06:39:06;205.40;2252.80
66827;DHT22;53727;45.242;19.796;2022-12-07T06:48:50;230.40;2252.80
66827;DHT22;53727;45.242;19.796;2022-12-07T06:51:16;205.60;2252.80
66827;DHT22;53727;45.242;19.796;2022-12-07T06:53:42;205.60;2252.80
66827;DHT22;53727;45.242;19.796;2022-12-07T06:56:10;205.60;2252.80
66827;DHT22;53727;45.242;19.796;2022-12-07T06:58:36;205.60;2252.80
66827;DHT22;53727;45.242;19.796;2022-12-07T07:01:02;205.70;2252.80
66827;DHT22;53727;45.242;19.796;2022-12-07T07:03:28;205.70;2252.80
66827;DHT22;53727;45.242;19.796;2022-12-07T07:05:54;205.70;2252.80
66827;DHT22;53727;45.242;19.796;2022-12-07T07:08:19;205.70;2252.80
66827;DHT22;53727;45.242;19.796;2022-12-07T07:10:45;205.70;2252.80
66827;DHT22;53727;45.242;19.796;2022-12-07T07:13:11;205.70;2252.80
66827;DHT22;53727;45.242;19.796;2022-12-07T07:15:38;205.70;2252.80
66827;DHT22;53727;45.242;19.796;2022-12-07T07:18:04;205.60;2252.80
66827;DHT22;53727;45.242;19.796;2022-12-07T07:20:29;205.50;2252.80
66827;DHT22;53727;45.242;19.796;2022-12-07T07:22:56;205.40;2252.80
66827;DHT22;53727;45.242;19.796;2022-12-07T07:25:22;205.50;2252.80
66827;DHT22;53727;45.242;19.796;2022-12-07T07:27:48;205.40;2252.80
66827;DHT22;53727;45.242;19.796;2022-12-07T07:30:13;205.40;2252.80
66827;DHT22;53727;45.242;19.796;2022-12-07T07:32:39;205.40;2252.80
66827;DHT22;53727;45.242;19.796;2022-12-07T07:35:05;205.40;2252.80
66827;DHT22;53727;45.242;19.796;2022-12-07T07:37:31;205.50;2252.80
66827;DHT22;53727;45.242;19.796;2022-12-07T07:39:57;205.50;2252.80
66827;DHT22;53727;45.242;19.796;2022-12-07T07:42:23;205.40;2252.80
66827;DHT22;53727;45.242;19.796;2022-12-07T07:44:49;205.40;2252.80
66827;DHT22;53727;45.242;19.796;2022-12-07T07:47:18;205.10;2252.80
66827;DHT22;53727;45.242;19.796;2022-12-07T07:49:44;205.20;2252.80
66827;DHT22;53727;45.242;19.796;2022-12-07T07:52:10;205.00;2252.80
66827;DHT22;53727;45.242;19.796;2022-12-07T07:54:35;205.00;2252.80
66827;DHT22;53727;45.242;19.796;2022-12-07T07:57:01;204.80;2252.80
66827;DHT22;53727;45.242;19.796;2022-12-07T07:59:27;180.00;2252.80
66827;DHT22;53727;45.242;19.796;2022-12-07T08:01:53;180.00;2252.80
66827;DHT22;53727;45.242;19.796;2022-12-07T08:04:18;180.00;2252.80
66827;DHT22;53727;45.242;19.796;2022-12-07T08:06:44;179.90;2252.80
66827;DHT22;53727;45.242;19.796;2022-12-07T08:09:10;180.00;2252.80
66827;DHT22;53727;45.242;19.796;2022-12-07T08:11:36;180.10;2252.80
66827;DHT22;53727;45.242;19.796;2022-12-07T08:14:02;180.10;2252.80
66827;DHT22;53727;45.242;19.796;2022-12-07T08:16:28;204.90;2252.80
66827;DHT22;53727;45.242;19.796;2022-12-07T08:18:54;205.00;2252.80
66827;DHT22;53727;45.242;19.796;2022-12-07T08:21:20;205.00;2252.80
66827;DHT22;53727;45.242;19.796;2022-12-07T08:23:46;205.00;2252.80
66827;DHT22;53727;45.242;19.796;2022-12-07T08:26:14;204.90;2252.80
66827;DHT22;53727;45.242;19.796;2022-12-07T08:28:41;205.00;2252.80
66827;DHT22;53727;45.242;19.796;2022-12-07T08:31:12;205.00;2252.80
66827;DHT22;53727;45.242;19.796;2022-12-07T08:33:39;205.20;2252.80
66827;DHT22;53727;45.242;19.796;2022-12-07T08:36:07;205.00;2252.80
66827;DHT22;53727;45.242;19.796;2022-12-07T08:38:37;204.90;2252.80
66827;DHT22;53727;45.242;19.796;2022-12-07T08:41:03;204.80;2252.80
66827;DHT22;53727;45.242;19.796;2022-12-07T08:43:30;204.90;2252.80
66827;DHT22;53727;45.242;19.796;2022-12-07T08:48:30;204.90;2252.80
66827;DHT22;53727;45.242;19.796;2022-12-07T08:50:57;204.90;2252.80
66827;DHT22;53727;45.242;19.796;2022-12-07T08:53:26;204.90;2252.80
66827;DHT22;53727;45.242;19.796;2022-12-07T08:55:52;204.90;2252.80
66827;DHT22;53727;45.242;19.796;2022-12-07T08:58:18;204.90;2252.80
66827;DHT22;53727;45.242;19.796;2022-12-07T09:00:44;204.90;2252.80
66827;DHT22;53727;45.242;19.796;2022-12-07T09:03:10;204.90;2252.80
66827;DHT22;53727;45.242;19.796;2022-12-07T09:05:35;204.90;2252.80
66827;DHT22;53727;45.242;19.796;2022-12-07T09:08:01;205.00;2252.80
66827;DHT22;53727;45.242;19.796;2022-12-07T09:10:28;205.00;2252.80
66827;DHT22;53727;45.242;19.796;2022-12-07T09:12:54;205.10;2252.80
66827;DHT22;53727;45.242;19.796;2022-12-07T09:15:20;205.20;2252.80
66827;DHT22;53727;45.242;19.796;2022-12-07T09:17:46;205.30;2252.80
66827;DHT22;53727;45.242;19.796;2022-12-07T09:20:12;205.20;2252.80
66827;DHT22;53727;45.242;19.796;2022-12-07T09:22:38;205.40;2252.80
66827;DHT22;53727;45.242;19.796;2022-12-07T09:25:04;205.40;2252.80
66827;DHT22;53727;45.242;19.796;2022-12-07T09:27:30;205.40;2252.80
66827;DHT22;53727;45.242;19.796;2022-12-07T09:29:56;205.50;2252.80
66827;DHT22;53727;45.242;19.796;2022-12-07T09:32:22;205.70;2252.80
66827;DHT22;53727;45.242;19.796;2022-12-07T09:34:48;205.70;2252.80
66827;DHT22;53727;45.242;19.796;2022-12-07T09:37:14;230.40;2252.80
66827;DHT22;53727;45.242;19.796;2022-12-07T09:39:40;230.40;2252.80
66827;DHT22;53727;45.242;19.796;2022-12-07T09:42:06;230.50;2252.80
